sensor_id;sensor_type;location;lat;lon;timestamp;pressure;altitude;pressure_sealevel;temperature;humidity
6615;BME280;3343;42.896;23.912;2022-11-15T00:02:16;97182.41;;;10.54;91.46
6615;BME280;3343;42.896;23.912;2022-11-15T00:04:43;97177.47;;;10.51;91.45
6615;BME280;3343;42.896;23.912;2022-11-15T00:07:10;97179.50;;;10.33;92.46
6615;BME280;3343;42.896;23.912;2022-11-15T00:09:37;97183.78;;;10.73;91.07
6615;BME280;3343;42.896;23.912;2022-11-15T00:12:04;97179.75;;;11.16;88.96
6615;BME280;3343;42.896;23.912;2022-11-15T00:14:32;97178.38;;;11.66;86.49
6615;BME280;3343;42.896;23.912;2022-11-15T00:16:59;97175.88;;;11.49;86.14
6615;BME280;3343;42.896;23.912;2022-11-15T00:19:26;97181.16;;;11.49;85.67
6615;BME280;3343;42.896;23.912;2022-11-15T00:21:53;97176.25;;;11.46;85.57
6615;BME280;3343;42.896;23.912;2022-11-15T00:24:20;97181.56;;;11.15;85.67
6615;BME280;3343;42.896;23.912;2022-11-15T00:26:47;97173.69;;;10.53;88.75
6615;BME280;3343;42.896;23.912;2022-11-15T00:29:14;97181.09;;;10.50;89.54
6615;BME280;3343;42.896;23.912;2022-11-15T00:31:42;97178.34;;;10.43;90.43
6615;BME280;3343;42.896;23.912;2022-11-15T00:34:09;97167.03;;;10.10;91.30
6615;BME280;3343;42.896;23.912;2022-11-15T00:36:36;97166.88;;;10.12;92.45
6615;BME280;3343;42.896;23.912;2022-11-15T00:39:03;97163.72;;;10.16;92.77
6615;BME280;3343;42.896;23.912;2022-11-15T00:41:31;97163.41;;;10.11;92.78
6615;BME280;3343;42.896;23.912;2022-11-15T00:43:57;97152.28;;;10.01;92.93
6615;BME280;3343;42.896;23.912;2022-11-15T00:46:25;97152.66;;;10.45;91.89
6615;BME280;3343;42.896;23.912;2022-11-15T00:48:53;97155.50;;;10.98;90.03
6615;BME280;3343;42.896;23.912;2022-11-15T00:51:20;97154.81;;;11.04;88.34
6615;BME280;3343;42.896;23.912;2022-11-15T00:53:47;97142.03;;;11.38;87.11
6615;BME280;3343;42.896;23.912;2022-11-15T00:56:14;97148.13;;;11.16;87.96
6615;BME280;3343;42.896;23.912;2022-11-15T00:58:41;97150.53;;;11.03;88.31
6615;BME280;3343;42.896;23.912;2022-11-15T01:01:09;97157.38;;;10.58;90.23
6615;BME280;3343;42.896;23.912;2022-11-15T01:03:37;97151.81;;;10.53;90.85
6615;BME280;3343;42.896;23.912;2022-11-15T01:06:08;97151.41;;;10.64;90.52
6615;BME280;3343;42.896;23.912;2022-11-15T01:08:35;97153.22;;;10.25;91.58
6615;BME280;3343;42.896;23.912;2022-11-15T01:11:03;97152.75;;;10.60;89.63
6615;BME280;3343;42.896;23.912;2022-11-15T01:13:31;97154.84;;;10.26;91.83
6615;BME280;3343;42.896;23.912;2022-11-15T01:15:58;97135.09;;;10.30;90.97
6615;BME280;3343;42.896;23.912;2022-11-15T01:18:25;97138.22;;;10.41;90.98
6615;BME280;3343;42.896;23.912;2022-11-15T01:20:52;97141.06;;;10.63;89.79
6615;BME280;3343;42.896;23.912;2022-11-15T01:23:20;97147.41;;;10.45;90.66
6615;BME280;3343;42.896;23.912;2022-11-15T01:25:47;97138.91;;;10.66;89.15
6615;BME280;3343;42.896;23.912;2022-11-15T01:28:14;97138.72;;;10.68;88.14
6615;BME280;3343;42.896;23.912;2022-11-15T01:30:41;97144.94;;;10.75;87.33
6615;BME280;3343;42.896;23.912;2022-11-15T01:33:07;97141.63;;;10.81;86.89
6615;BME280;3343;42.896;23.912;2022-11-15T01:35:38;97142.78;;;11.47;84.72
6615;BME280;3343;42.896;23.912;2022-11-15T01:38:05;97117.56;;;11.07;85.13
6615;BME280;3343;42.896;23.912;2022-11-15T01:40:33;97141.97;;;10.47;88.83
6615;BME280;3343;42.896;23.912;2022-11-15T01:43:19;97132.25;;;10.47;89.05
6615;BME280;3343;42.896;23.912;2022-11-15T01:45:49;97141.06;;;10.24;90.42
6615;BME280;3343;42.896;23.912;2022-11-15T01:48:16;97128.88;;;9.67;92.27
6615;BME280;3343;42.896;23.912;2022-11-15T01:50:44;97133.19;;;10.07;91.02
6615;BME280;3343;42.896;23.912;2022-11-15T01:53:11;97130.41;;;10.01;91.19
6615;BME280;3343;42.896;23.912;2022-11-15T01:55:39;97135.19;;;10.52;89.94
6615;BME280;3343;42.896;23.912;2022-11-15T01:58:07;97139.59;;;10.60;88.73
6615;BME280;3343;42.896;23.912;2022-11-15T02:00:34;97140.22;;;10.23;89.49
6615;BME280;3343;42.896;23.912;2022-11-15T02:03:02;97131.56;;;10.53;88.29
6615;BME280;3343;42.896;23.912;2022-11-15T02:05:30;97130.84;;;10.29;88.40
6615;BME280;3343;42.896;23.912;2022-11-15T02:07:57;97132.34;;;10.15;88.77
6615;BME280;3343;42.896;23.912;2022-11-15T02:10:24;97122.59;;;10.71;86.85
6615;BME280;3343;42.896;23.912;2022-11-15T02:12:54;97133.94;;;10.71;87.55
6615;BME280;3343;42.896;23.912;2022-11-15T02:15:23;97129.63;;;10.47;88.74
6615;BME280;3343;42.896;23.912;2022-11-15T02:18:09;97126.19;;;10.47;89.25
6615;BME280;3343;42.896;23.912;2022-11-15T02:21:10;97125.84;;;10.50;89.02
6615;BME280;3343;42.896;23.912;2022-11-15T02:27:07;97114.75;;;10.15;90.87
6615;BME280;3343;42.896;23.912;2022-11-15T02:30:00;97117.63;;;10.45;89.31
6615;BME280;3343;42.896;23.912;2022-11-15T02:32:34;97115.84;;;10.37;90.01
6615;BME280;3343;42.896;23.912;2022-11-15T02:35:12;97118.97;;;10.41;89.06
6615;BME280;3343;42.896;23.912;2022-11-15T02:37:47;97121.59;;;10.41;89.01
6615;BME280;3343;42.896;23.912;2022-11-15T02:40:26;97123.66;;;11.30;85.74
6615;BME280;3343;42.896;23.912;2022-11-15T02:42:56;97108.91;;;11.59;83.34
6615;BME280;3343;42.896;23.912;2022-11-15T02:45:44;97111.13;;;11.70;82.66
6615;BME280;3343;42.896;23.912;2022-11-15T02:48:14;97108.94;;;11.73;81.71
6615;BME280;3343;42.896;23.912;2022-11-15T02:50:42;97105.34;;;12.04;81.14
6615;BME280;3343;42.896;23.912;2022-11-15T02:53:09;97107.75;;;11.01;83.80
6615;BME280;3343;42.896;23.912;2022-11-15T02:55:38;97106.06;;;11.45;83.23
6615;BME280;3343;42.896;23.912;2022-11-15T02:58:23;97103.34;;;11.39;82.69
6615;BME280;3343;42.896;23.912;2022-11-15T03:00:59;97101.16;;;11.20;84.24
6615;BME280;3343;42.896;23.912;2022-11-15T03:03:41;97102.75;;;10.60;86.82
6615;BME280;3343;42.896;23.912;2022-11-15T03:06:20;97101.69;;;10.46;87.62
6615;BME280;3343;42.896;23.912;2022-11-15T03:08:57;97106.00;;;10.31;88.52
6615;BME280;3343;42.896;23.912;2022-11-15T03:11:31;97098.97;;;10.24;89.38
6615;BME280;3343;42.896;23.912;2022-11-15T03:14:08;97105.66;;;10.34;88.49
6615;BME280;3343;42.896;23.912;2022-11-15T03:16:44;97102.16;;;10.50;88.35
6615;BME280;3343;42.896;23.912;2022-11-15T03:19:19;97095.38;;;10.56;87.51
6615;BME280;3343;42.896;23.912;2022-11-15T03:21:51;97098.72;;;10.72;86.84
6615;BME280;3343;42.896;23.912;2022-11-15T03:24:20;97096.25;;;11.16;84.79
6615;BME280;3343;42.896;23.912;2022-11-15T03:26:49;97091.16;;;11.38;83.16
6615;BME280;3343;42.896;23.912;2022-11-15T03:29:21;97086.56;;;11.69;81.51
6615;BME280;3343;42.896;23.912;2022-11-15T03:31:54;97092.59;;;11.78;80.49
6615;BME280;3343;42.896;23.912;2022-11-15T03:34:28;97095.31;;;11.99;79.68
6615;BME280;3343;42.896;23.912;2022-11-15T03:36:56;97079.56;;;11.62;80.49
6615;BME280;3343;42.896;23.912;2022-11-15T03:39:24;97072.00;;;11.59;80.74
6615;BME280;3343;42.896;23.912;2022-11-15T03:41:59;97077.06;;;11.08;83.56
6615;BME280;3343;42.896;23.912;2022-11-15T03:44:35;97079.31;;;10.73;85.14
6615;BME280;3343;42.896;23.912;2022-11-15T03:47:07;97064.09;;;11.21;82.85
6615;BME280;3343;42.896;23.912;2022-11-15T03:49:41;97069.28;;;11.52;81.53
6615;BME280;3343;42.896;23.912;2022-11-15T03:52:11;97052.56;;;11.45;80.65
6615;BME280;3343;42.896;23.912;2022-11-15T03:54:48;97059.03;;;12.01;78.06
6615;BME280;3343;42.896;23.912;2022-11-15T03:57:15;97052.91;;;11.42;80.89
6615;BME280;3343;42.896;23.912;2022-11-15T03:59:42;97047.84;;;11.17;81.14
6615;BME280;3343;42.896;23.912;2022-11-15T04:02:08;97039.63;;;10.98;81.99
6615;BME280;3343;42.896;23.912;2022-11-15T04:04:35;97046.84;;;10.81;82.62
6615;BME280;3343;42.896;23.912;2022-11-15T04:07:03;97048.28;;;11.06;82.37
6615;BME280;3343;42.896;23.912;2022-11-15T04:09:30;97051.00;;;11.13;81.41
6615;BME280;3343;42.896;23.912;2022-11-15T04:11:57;97033.38;;;11.13;81.08
6615;BME280;3343;42.896;23.912;2022-11-15T04:14:24;97053.09;;;11.17;80.54
6615;BME280;3343;42.896;23.912;2022-11-15T04:16:51;97047.47;;;11.21;79.94
6615;BME280;3343;42.896;23.912;2022-11-15T04:19:18;97048.66;;;11.18;79.50
6615;BME280;3343;42.896;23.912;2022-11-15T04:22:03;97043.50;;;11.25;79.93
6615;BME280;3343;42.896;23.912;2022-11-15T04:24:48;97044.19;;;10.81;80.58
6615;BME280;3343;42.896;23.912;2022-11-15T04:27:15;97043.97;;;10.68;81.39
6615;BME280;3343;42.896;23.912;2022-11-15T04:29:41;97037.13;;;10.81;81.62
6615;BME280;3343;42.896;23.912;2022-11-15T04:32:08;97030.75;;;10.53;83.22
6615;BME280;3343;42.896;23.912;2022-11-15T04:34:35;97035.59;;;10.41;84.16
6615;BME280;3343;42.896;23.912;2022-11-15T04:37:05;97032.16;;;10.87;82.63
6615;BME280;3343;42.896;23.912;2022-11-15T04:39:42;97035.88;;;10.92;81.47
6615;BME280;3343;42.896;23.912;2022-11-15T04:42:09;97025.28;;;11.00;80.88
6615;BME280;3343;42.896;23.912;2022-11-15T04:44:37;97021.94;;;11.06;80.02
6615;BME280;3343;42.896;23.912;2022-11-15T04:47:04;97026.75;;;11.03;80.78
6615;BME280;3343;42.896;23.912;2022-11-15T04:49:31;97026.75;;;11.40;78.96
6615;BME280;3343;42.896;23.912;2022-11-15T04:51:58;97030.75;;;11.51;78.10
6615;BME280;3343;42.896;23.912;2022-11-15T04:54:27;97034.00;;;11.53;78.21
6615;BME280;3343;42.896;23.912;2022-11-15T04:56:54;97029.28;;;11.48;78.13
6615;BME280;3343;42.896;23.912;2022-11-15T04:59:20;97025.63;;;11.35;78.58
6615;BME280;3343;42.896;23.912;2022-11-15T05:01:47;97031.53;;;10.99;80.68
6615;BME280;3343;42.896;23.912;2022-11-15T05:04:14;97025.81;;;10.96;81.08
6615;BME280;3343;42.896;23.912;2022-11-15T05:06:48;97030.00;;;11.42;79.58
6615;BME280;3343;42.896;23.912;2022-11-15T05:09:15;97021.47;;;11.55;78.78
6615;BME280;3343;42.896;23.912;2022-11-15T05:11:44;97031.09;;;11.63;78.26
6615;BME280;3343;42.896;23.912;2022-11-15T05:14:11;97026.84;;;11.62;77.77
6615;BME280;3343;42.896;23.912;2022-11-15T05:16:38;97028.00;;;11.44;78.53
6615;BME280;3343;42.896;23.912;2022-11-15T05:19:05;97015.94;;;11.65;77.87
6615;BME280;3343;42.896;23.912;2022-11-15T05:21:33;97011.94;;;11.69;77.74
6615;BME280;3343;42.896;23.912;2022-11-15T05:24:00;97030.09;;;11.64;78.24
6615;BME280;3343;42.896;23.912;2022-11-15T05:26:27;97028.00;;;11.44;78.63
6615;BME280;3343;42.896;23.912;2022-11-15T05:28:57;97030.81;;;11.28;79.78
6615;BME280;3343;42.896;23.912;2022-11-15T05:31:25;97025.84;;;11.63;79.06
6615;BME280;3343;42.896;23.912;2022-11-15T05:33:53;97028.75;;;11.53;79.12
6615;BME280;3343;42.896;23.912;2022-11-15T05:36:26;97021.84;;;11.67;78.64
6615;BME280;3343;42.896;23.912;2022-11-15T05:38:54;97024.84;;;11.49;79.41
6615;BME280;3343;42.896;23.912;2022-11-15T05:41:25;97024.91;;;11.41;79.75
6615;BME280;3343;42.896;23.912;2022-11-15T05:43:53;97023.75;;;11.58;78.90
6615;BME280;3343;42.896;23.912;2022-11-15T05:46:22;97022.22;;;11.78;78.14
6615;BME280;3343;42.896;23.912;2022-11-15T05:48:50;97027.75;;;11.69;78.39
6615;BME280;3343;42.896;23.912;2022-11-15T05:51:20;97021.09;;;11.73;78.05
6615;BME280;3343;42.896;23.912;2022-11-15T05:53:49;97029.28;;;11.63;78.71
6615;BME280;3343;42.896;23.912;2022-11-15T05:56:18;97032.09;;;10.72;80.98
6615;BME280;3343;42.896;23.912;2022-11-15T05:58:45;97033.84;;;10.57;82.58
6615;BME280;3343;42.896;23.912;2022-11-15T06:01:12;97032.47;;;11.06;79.67
6615;BME280;3343;42.896;23.912;2022-11-15T06:03:41;97039.94;;;11.70;78.22
6615;BME280;3343;42.896;23.912;2022-11-15T06:06:08;97044.31;;;11.77;77.45
6615;BME280;3343;42.896;23.912;2022-11-15T06:08:36;97033.69;;;11.86;77.46
6615;BME280;3343;42.896;23.912;2022-11-15T06:11:04;97034.00;;;11.53;78.78
6615;BME280;3343;42.896;23.912;2022-11-15T06:13:31;97032.19;;;11.54;78.51
6615;BME280;3343;42.896;23.912;2022-11-15T06:15:58;97041.28;;;11.51;78.59
6615;BME280;3343;42.896;23.912;2022-11-15T06:18:25;97043.28;;;11.64;78.36
6615;BME280;3343;42.896;23.912;2022-11-15T06:20:53;97042.09;;;11.66;78.38
6615;BME280;3343;42.896;23.912;2022-11-15T06:23:20;97038.84;;;11.64;78.06
6615;BME280;3343;42.896;23.912;2022-11-15T06:25:47;97042.28;;;11.65;77.63
6615;BME280;3343;42.896;23.912;2022-11-15T06:28:14;97038.88;;;11.79;76.72
6615;BME280;3343;42.896;23.912;2022-11-15T06:30:41;97042.59;;;11.85;76.39
6615;BME280;3343;42.896;23.912;2022-11-15T06:33:08;97044.19;;;11.71;76.78
6615;BME280;3343;42.896;23.912;2022-11-15T06:35:35;97041.75;;;11.99;75.28
6615;BME280;3343;42.896;23.912;2022-11-15T06:38:05;97038.38;;;11.61;77.03
6615;BME280;3343;42.896;23.912;2022-11-15T06:40:34;97040.50;;;11.80;76.76
6615;BME280;3343;42.896;23.912;2022-11-15T06:43:02;97038.03;;;11.78;76.90
6615;BME280;3343;42.896;23.912;2022-11-15T06:45:29;97028.47;;;11.63;77.54
6615;BME280;3343;42.896;23.912;2022-11-15T06:47:56;97027.88;;;11.23;78.14
6615;BME280;3343;42.896;23.912;2022-11-15T06:50:23;97018.84;;;11.03;79.41
6615;BME280;3343;42.896;23.912;2022-11-15T06:52:50;97024.91;;;11.41;78.67
6615;BME280;3343;42.896;23.912;2022-11-15T06:55:19;97028.47;;;11.63;77.79
6615;BME280;3343;42.896;23.912;2022-11-15T06:57:47;97026.78;;;11.17;78.75
6615;BME280;3343;42.896;23.912;2022-11-15T07:00:16;97029.09;;;11.35;78.98
6615;BME280;3343;42.896;23.912;2022-11-15T07:02:43;97023.56;;;11.60;77.53
6615;BME280;3343;42.896;23.912;2022-11-15T07:05:10;97025.56;;;11.72;76.71
6615;BME280;3343;42.896;23.912;2022-11-15T07:07:37;97023.47;;;11.97;75.60
6615;BME280;3343;42.896;23.912;2022-11-15T07:10:06;97025.19;;;11.61;77.53
6615;BME280;3343;42.896;23.912;2022-11-15T07:12:34;97014.22;;;11.05;79.92
6615;BME280;3343;42.896;23.912;2022-11-15T07:15:01;97015.06;;;10.82;80.37
6615;BME280;3343;42.896;23.912;2022-11-15T07:17:28;97011.97;;;11.16;79.80
6615;BME280;3343;42.896;23.912;2022-11-15T07:19:55;97011.66;;;11.93;77.39
6615;BME280;3343;42.896;23.912;2022-11-15T07:22:22;97012.47;;;12.44;74.85
6615;BME280;3343;42.896;23.912;2022-11-15T07:24:49;97000.00;;;12.17;75.19
6615;BME280;3343;42.896;23.912;2022-11-15T07:27:15;97005.38;;;11.50;77.55
6615;BME280;3343;42.896;23.912;2022-11-15T07:29:44;97006.38;;;10.97;80.27
6615;BME280;3343;42.896;23.912;2022-11-15T07:32:11;97003.19;;;11.39;78.35
6615;BME280;3343;42.896;23.912;2022-11-15T07:34:38;97006.84;;;11.53;77.21
6615;BME280;3343;42.896;23.912;2022-11-15T07:37:04;97012.75;;;11.99;75.11
6615;BME280;3343;42.896;23.912;2022-11-15T07:39:31;96998.72;;;12.49;73.68
6615;BME280;3343;42.896;23.912;2022-11-15T07:41:59;97007.00;;;13.10;72.04
6615;BME280;3343;42.896;23.912;2022-11-15T07:44:39;97008.25;;;13.14;70.68
6615;BME280;3343;42.896;23.912;2022-11-15T07:47:08;97004.69;;;13.56;69.45
6615;BME280;3343;42.896;23.912;2022-11-15T07:49:35;97007.56;;;13.27;68.84
6615;BME280;3343;42.896;23.912;2022-11-15T07:52:01;97006.75;;;12.84;69.84
6615;BME280;3343;42.896;23.912;2022-11-15T07:54:28;97011.53;;;12.73;70.41
6615;BME280;3343;42.896;23.912;2022-11-15T07:56:55;97007.06;;;12.74;70.61
6615;BME280;3343;42.896;23.912;2022-11-15T07:59:22;97010.53;;;12.74;71.08
6615;BME280;3343;42.896;23.912;2022-11-15T08:01:49;97007.13;;;12.38;71.14
6615;BME280;3343;42.896;23.912;2022-11-15T08:04:17;97012.22;;;12.82;70.62
6615;BME280;3343;42.896;23.912;2022-11-15T08:06:44;97016.06;;;12.80;70.49
6615;BME280;3343;42.896;23.912;2022-11-15T08:09:11;97012.50;;;13.15;69.75
6615;BME280;3343;42.896;23.912;2022-11-15T08:11:38;97006.94;;;12.82;69.85
6615;BME280;3343;42.896;23.912;2022-11-15T08:14:05;97003.84;;;12.79;69.28
6615;BME280;3343;42.896;23.912;2022-11-15T08:16:32;96990.38;;;13.16;68.74
6615;BME280;3343;42.896;23.912;2022-11-15T08:18:58;97000.09;;;13.37;67.80
6615;BME280;3343;42.896;23.912;2022-11-15T08:21:28;96993.22;;;13.84;66.97
6615;BME280;3343;42.896;23.912;2022-11-15T08:23:55;96995.59;;;13.31;67.82
6615;BME280;3343;42.896;23.912;2022-11-15T08:26:21;96982.84;;;12.70;69.84
6615;BME280;3343;42.896;23.912;2022-11-15T08:28:50;96978.88;;;13.02;69.84
6615;BME280;3343;42.896;23.912;2022-11-15T08:31:18;96981.72;;;12.80;70.67
6615;BME280;3343;42.896;23.912;2022-11-15T08:33:44;96975.63;;;12.36;71.85
6615;BME280;3343;42.896;23.912;2022-11-15T08:36:13;96972.78;;;12.81;72.41
6615;BME280;3343;42.896;23.912;2022-11-15T08:38:42;96965.09;;;12.86;72.57
6615;BME280;3343;42.896;23.912;2022-11-15T08:41:13;96959.94;;;12.99;71.51
6615;BME280;3343;42.896;23.912;2022-11-15T08:43:40;96961.75;;;12.49;71.75
6615;BME280;3343;42.896;23.912;2022-11-15T08:46:08;96956.13;;;12.80;72.35
6615;BME280;3343;42.896;23.912;2022-11-15T08:48:38;96961.47;;;12.87;71.68
6615;BME280;3343;42.896;23.912;2022-11-15T08:51:05;96957.38;;;13.05;70.46
6615;BME280;3343;42.896;23.912;2022-11-15T08:53:31;96955.28;;;13.22;69.45
6615;BME280;3343;42.896;23.912;2022-11-15T08:56:00;96948.53;;;13.54;68.14
6615;BME280;3343;42.896;23.912;2022-11-15T08:58:27;96949.38;;;13.20;68.90
6615;BME280;3343;42.896;23.912;2022-11-15T09:00:54;96947.38;;;13.29;69.52
6615;BME280;3343;42.896;23.912;2022-11-15T09:45:22;96895.34;;;12.73;81.95
6615;BME280;3343;42.896;23.912;2022-11-15T09:48:03;96884.78;;;12.24;82.60
6615;BME280;3343;42.896;23.912;2022-11-15T09:50:37;96875.19;;;12.02;81.58
6615;BME280;3343;42.896;23.912;2022-11-15T09:53:10;96876.06;;;12.52;81.96
6615;BME280;3343;42.896;23.912;2022-11-15T09:55:44;96875.06;;;13.43;77.37
6615;BME280;3343;42.896;23.912;2022-11-15T09:58:20;96861.63;;;12.75;79.45
6615;BME280;3343;42.896;23.912;2022-11-15T10:25:50;96836.22;;;12.74;82.44
6615;BME280;3343;42.896;23.912;2022-11-15T10:28:28;96839.22;;;12.65;81.18
6615;BME280;3343;42.896;23.912;2022-11-15T10:30:57;96836.84;;;13.04;80.76
6615;BME280;3343;42.896;23.912;2022-11-15T10:33:30;96821.38;;;13.43;78.44
6615;BME280;3343;42.896;23.912;2022-11-15T10:36:16;96822.25;;;13.63;77.13
6615;BME280;3343;42.896;23.912;2022-11-15T10:38:55;96813.69;;;13.61;78.20
6615;BME280;3343;42.896;23.912;2022-11-15T10:41:35;96820.69;;;12.93;77.90
6615;BME280;3343;42.896;23.912;2022-11-15T10:44:18;96808.78;;;13.45;79.30
6615;BME280;3343;42.896;23.912;2022-11-15T10:46:47;96799.44;;;13.49;77.36
6615;BME280;3343;42.896;23.912;2022-11-15T10:49:18;96791.34;;;13.16;79.32
6615;BME280;3343;42.896;23.912;2022-11-15T10:51:47;96798.97;;;13.32;78.72
6615;BME280;3343;42.896;23.912;2022-11-15T10:54:30;96785.66;;;13.86;76.59
6615;BME280;3343;42.896;23.912;2022-11-15T10:57:05;96799.34;;;14.03;74.16
6615;BME280;3343;42.896;23.912;2022-11-15T10:59:35;96786.25;;;13.62;75.38
6615;BME280;3343;42.896;23.912;2022-11-15T11:02:27;96784.13;;;13.31;77.85
6615;BME280;3343;42.896;23.912;2022-11-15T11:04:55;96774.84;;;13.07;79.55
6615;BME280;3343;42.896;23.912;2022-11-15T11:07:23;96778.72;;;13.04;79.31
6615;BME280;3343;42.896;23.912;2022-11-15T11:09:57;96769.91;;;13.38;77.98
6615;BME280;3343;42.896;23.912;2022-11-15T11:12:29;96778.72;;;13.59;78.01
6615;BME280;3343;42.896;23.912;2022-11-15T11:14:58;96773.75;;;13.29;78.78
6615;BME280;3343;42.896;23.912;2022-11-15T11:17:33;96767.63;;;13.22;78.07
6615;BME280;3343;42.896;23.912;2022-11-15T11:20:09;96755.19;;;13.16;79.00
6615;BME280;3343;42.896;23.912;2022-11-15T11:22:42;96741.97;;;13.16;77.78
6615;BME280;3343;42.896;23.912;2022-11-15T11:25:24;96734.81;;;12.62;80.45
6615;BME280;3343;42.896;23.912;2022-11-15T11:28:05;96736.78;;;12.54;81.47
6615;BME280;3343;42.896;23.912;2022-11-15T11:30:46;96728.53;;;13.11;79.79
6615;BME280;3343;42.896;23.912;2022-11-15T11:33:17;96728.94;;;13.08;79.52
6615;BME280;3343;42.896;23.912;2022-11-15T11:35:51;96727.00;;;12.48;81.64
6615;BME280;3343;42.896;23.912;2022-11-15T11:38:38;96723.63;;;12.26;83.53
6615;BME280;3343;42.896;23.912;2022-11-15T11:41:14;96727.44;;;12.51;82.62
6615;BME280;3343;42.896;23.912;2022-11-15T11:43:51;96714.63;;;12.96;81.44
6615;BME280;3343;42.896;23.912;2022-11-15T11:46:47;96708.09;;;13.33;80.11
6615;BME280;3343;42.896;23.912;2022-11-15T11:49:19;96719.31;;;13.75;79.43
6615;BME280;3343;42.896;23.912;2022-11-15T11:51:51;96711.19;;;14.22;76.34
6615;BME280;3343;42.896;23.912;2022-11-15T11:54:25;96709.34;;;14.23;75.94
6615;BME280;3343;42.896;23.912;2022-11-15T11:56:54;96714.63;;;14.43;75.03
6615;BME280;3343;42.896;23.912;2022-11-15T11:59:33;96709.69;;;14.79;72.12
6615;BME280;3343;42.896;23.912;2022-11-15T12:02:11;96709.34;;;15.07;72.48
6615;BME280;3343;42.896;23.912;2022-11-15T12:04:44;96704.31;;;15.30;70.34
6615;BME280;3343;42.896;23.912;2022-11-15T12:07:20;96689.88;;;15.26;68.95
6615;BME280;3343;42.896;23.912;2022-11-15T12:09:53;96689.63;;;15.35;68.73
6615;BME280;3343;42.896;23.912;2022-11-15T12:12:30;96690.72;;;15.58;67.97
6615;BME280;3343;42.896;23.912;2022-11-15T12:15:02;96679.94;;;15.47;69.16
6615;BME280;3343;42.896;23.912;2022-11-15T12:17:31;96679.63;;;14.98;71.21
6615;BME280;3343;42.896;23.912;2022-11-15T12:19:59;96689.97;;;15.07;70.70
6615;BME280;3343;42.896;23.912;2022-11-15T12:22:35;96680.16;;;15.14;70.60
6615;BME280;3343;42.896;23.912;2022-11-15T12:25:06;96682.13;;;14.87;72.23
6615;BME280;3343;42.896;23.912;2022-11-15T12:27:37;96684.94;;;14.98;71.18
6615;BME280;3343;42.896;23.912;2022-11-15T12:30:12;96677.19;;;14.97;71.44
6615;BME280;3343;42.896;23.912;2022-11-15T12:32:49;96677.47;;;15.20;70.87
6615;BME280;3343;42.896;23.912;2022-11-15T12:35:25;96680.59;;;15.42;70.17
6615;BME280;3343;42.896;23.912;2022-11-15T12:37:54;96672.50;;;14.99;72.34
6615;BME280;3343;42.896;23.912;2022-11-15T12:40:29;96673.44;;;15.11;71.52
6615;BME280;3343;42.896;23.912;2022-11-15T12:45:53;96671.84;;;15.04;72.65
6615;BME280;3343;42.896;23.912;2022-11-15T12:55:00;96670.78;;;15.11;72.05
6615;BME280;3343;42.896;23.912;2022-11-15T12:57:38;96655.88;;;14.79;74.12
6615;BME280;3343;42.896;23.912;2022-11-15T13:03:27;96668.13;;;14.66;74.57
6615;BME280;3343;42.896;23.912;2022-11-15T13:06:00;96673.22;;;14.68;74.86
6615;BME280;3343;42.896;23.912;2022-11-15T13:08:48;96661.06;;;14.98;72.24
6615;BME280;3343;42.896;23.912;2022-11-15T13:11:45;96663.78;;;14.85;73.16
6615;BME280;3343;42.896;23.912;2022-11-15T13:14:47;96657.47;;;14.86;72.91
6615;BME280;3343;42.896;23.912;2022-11-15T13:17:29;96649.56;;;14.66;73.44
6615;BME280;3343;42.896;23.912;2022-11-15T13:23:07;96659.28;;;14.15;76.00
6615;BME280;3343;42.896;23.912;2022-11-15T13:25:48;96656.13;;;14.57;74.09
6615;BME280;3343;42.896;23.912;2022-11-15T13:28:24;96653.69;;;14.56;75.14
6615;BME280;3343;42.896;23.912;2022-11-15T13:30:53;96655.34;;;14.37;75.77
6615;BME280;3343;42.896;23.912;2022-11-15T13:33:22;96654.31;;;14.51;75.29
6615;BME280;3343;42.896;23.912;2022-11-15T13:35:53;96660.28;;;14.27;76.44
6615;BME280;3343;42.896;23.912;2022-11-15T13:38:26;96660.25;;;14.40;76.23
6615;BME280;3343;42.896;23.912;2022-11-15T13:40:54;96658.84;;;14.31;77.10
6615;BME280;3343;42.896;23.912;2022-11-15T13:43:27;96661.25;;;14.39;77.16
6615;BME280;3343;42.896;23.912;2022-11-15T13:46:06;96649.66;;;14.40;76.87
6615;BME280;3343;42.896;23.912;2022-11-15T13:48:33;96654.03;;;13.88;78.84
6615;BME280;3343;42.896;23.912;2022-11-15T13:51:03;96653.16;;;14.21;78.01
6615;BME280;3343;42.896;23.912;2022-11-15T13:53:32;96651.13;;;14.16;78.18
6615;BME280;3343;42.896;23.912;2022-11-15T13:56:00;96638.31;;;14.13;78.07
6615;BME280;3343;42.896;23.912;2022-11-15T13:58:29;96642.38;;;14.22;76.99
6615;BME280;3343;42.896;23.912;2022-11-15T14:01:00;96635.78;;;14.51;75.94
6615;BME280;3343;42.896;23.912;2022-11-15T14:03:30;96631.56;;;14.30;77.27
6615;BME280;3343;42.896;23.912;2022-11-15T14:06:08;96645.25;;;14.14;77.26
6615;BME280;3343;42.896;23.912;2022-11-15T14:08:37;96633.06;;;13.60;79.95
6615;BME280;3343;42.896;23.912;2022-11-15T14:11:12;96636.72;;;13.79;79.32
6615;BME280;3343;42.896;23.912;2022-11-15T14:13:40;96635.09;;;13.38;81.69
6615;BME280;3343;42.896;23.912;2022-11-15T14:16:16;96634.69;;;13.55;80.98
6615;BME280;3343;42.896;23.912;2022-11-15T14:18:46;96635.31;;;13.44;81.78
6615;BME280;3343;42.896;23.912;2022-11-15T14:21:15;96640.72;;;13.09;82.96
6615;BME280;3343;42.896;23.912;2022-11-15T14:23:42;96633.97;;;12.93;83.64
6615;BME280;3343;42.896;23.912;2022-11-15T14:26:26;96629.59;;;13.33;82.10
6615;BME280;3343;42.896;23.912;2022-11-15T14:28:53;96627.03;;;12.92;83.98
6615;BME280;3343;42.896;23.912;2022-11-15T14:31:20;96634.06;;;13.20;83.18
6615;BME280;3343;42.896;23.912;2022-11-15T14:33:47;96639.97;;;13.28;83.11
6615;BME280;3343;42.896;23.912;2022-11-15T14:36:18;96639.97;;;13.22;83.30
6615;BME280;3343;42.896;23.912;2022-11-15T14:38:46;96634.47;;;13.23;83.09
6615;BME280;3343;42.896;23.912;2022-11-15T14:41:21;96618.44;;;13.45;81.86
6615;BME280;3343;42.896;23.912;2022-11-15T14:43:49;96634.47;;;13.23;82.70
6615;BME280;3343;42.896;23.912;2022-11-15T14:46:16;96628.59;;;13.28;82.30
6615;BME280;3343;42.896;23.912;2022-11-15T14:48:43;96630.22;;;13.35;81.90
6615;BME280;3343;42.896;23.912;2022-11-15T14:51:11;96622.91;;;13.57;81.49
6615;BME280;3343;42.896;23.912;2022-11-15T14:53:42;96623.69;;;13.25;83.22
6615;BME280;3343;42.896;23.912;2022-11-15T14:56:09;96618.63;;;13.17;82.84